Capitol Logistics 408




KGSO
Piedmont Triad International Airport
Greensboro,
KCVG
Cincinnati/Northern Kentucky International Airport
Covington, Kentucky

Activity Log

Date Flight Route Aircraft Duration
No Flights Yet

Route Details

Aircraft Information
Group: North America Fleet
Types: B738,B752,B762,B763
Route Data
Demand: L
Distance: 287nm
Duration: 1h 02m
Recm'd Route: TRSHA1 BAWDS CUBIM JAKIE5
Origin Wx: KGSO 272054Z 21014G20KT 10SM BKN060 BKN250 27/15 A2979 RMK AO2 SLP075 T02670150 56019 $
Dest. Wx: KCVG 272114Z 26007KT 9SM -RA FEW023 BKN085 BKN130 OVC190 16/16 A2978 RMK AO2 TSE06 TS MOV E CB MOV E CB DSNT NE-E P0001 T01610156
Notes:

Financial History
Total Freight: 0lbs
Average Load: 0lbs/flt
Fuel Used: 0lbs
Avg. Fuel Used: 0lbs/flt
Fuel Expense: $0
Avg. Fuel Expense: $0
Avg. Fuel Cost: $0/lbs
Total Gross Income: $0
Pilot Pay: $0
Total Expenses: $0
Total Revenue: $0
Average Revenue: $0